x

Nantucket Sound (44020) Wave Buoy

9:50pm - Mon 15th Sep 2014 All times are EDT. -4 hours from GMT.

  • Sig Wave height 0.7ft
  • Average Period 4s
  • Wind
    9mph, 13mph gusts
  • Sea Temp 66°f
  • 空気 Temp 61°f
  • Sea Pressure 1020.3mb
  • Nantucket Sound
  • Nantucket Sound

More Historic Weather Station data

Upgrade to MSW Pro to gain access to the past 30 days of data for over 8000 Wavebouys and Weather Stations around the globe.

Join Pro

Comparision Forecast

View Surf forecast
   
Mon 09/15 9:50pm 0.7ft  -  4s 9 13 mph 1020.3mb 66f 61f
8:50pm 0.7ft  -  4s 11 13 mph 1020.3mb 67f 61f
7:50pm 0.7ft  -  4s 11 16 mph 1019.9mb 68f 61f
6:50pm 1ft 5s 4s 11 13 mph 1020.3mb 69f 61f
5:50pm 1ft 3s 4s 11 13 mph 1020.2mb 70f 61f
4:50pm 1ft 4s 4s 9 11 mph 1020.2mb 70f 62f
3:50pm 0.7ft  -  5s  -  2 mph 1020.6mb 70f 64f
2:50pm 0.7ft  -  4s 4 7 mph 1021.1mb 69f 62f
1:50pm 0.7ft  -  4s 2 4 mph 1021.4mb 69f 62f
12:50pm 0.7ft  -  4s 4 7 mph 1021.9mb 69f 61f
11:50am 0.7ft  -  4s 2 4 mph 1022.1mb 68f 60f
10:50am 1ft 6s 4s 2 4 mph 1022.8mb 67f 61f
9:50am 0.7ft  -  4s 2
mph
1023.1mb 67f 61f
8:50am 0.7ft  -  4s 4 7 mph 1023mb 67f 61f
7:50am 1ft 5s 4s 4
mph
1023mb 68f 60f
6:50am 1ft 6s 4s 4 7 mph 1022.8mb 68f 60f
5:50am 1ft 6s 4s 4 7 mph 1022.6mb 68f 60f
4:50am 1ft 7s 5s 4 7 mph 1022.2mb 68f 61f
3:50am 0.7ft  -  5s 2 4 mph 1022mb 68f 61f
2:50am 0.3ft  -  5s 2 4 mph 1022.3mb 68f 61f
1:50am 0.3ft  -  4s 2 4 mph 1022.1mb 67f 61f
12:50am 0.3ft  -  4s 4
mph
1022.3mb 67f 60f
Sun 09/14 11:50pm 0.7ft  -  4s 4 7 mph 1022.5mb 66f 60f
10:50pm 0.7ft  -  4s 4 7 mph 1022.5mb 66f 59f
9:50pm 0.7ft  -  4s 2
mph
1022.9mb 66f 59f
8:50pm 0.7ft  -  4s 4 7 mph 1023mb 66f 59f
7:50pm 1ft 6s 4s 9 11 mph 1022.6mb 67f 58f
6:50pm 1ft 5s 4s 9 11 mph 1022.4mb 68f 59f
5:50pm 1ft 5s 3s 9 11 mph 1022.1mb 69f 59f
4:50pm 1.3ft 6s 3s 7 9 mph 1021.9mb 69f 60f
3:50pm 1.3ft 3s 3s 7 11 mph 1022mb 69f 60f
2:50pm 1.6ft 3s 3s 11 16 mph 1021.9mb 69f 59f
1:50pm 1.6ft 3s 3s 13 18 mph 1022.1mb 68f 58f
12:50pm 2ft 4s 3s 16 18 mph 1021.8mb 68f 58f
11:50am 2.5ft 4s 4s 16 20 mph 1022.1mb 67f 58f
10:50am 2.5ft 4s 4s 18 22 mph 1022mb 66f 58f
9:50am 2.5ft 4s 3s 20 22 mph 1021.8mb 66f 60f
8:50am 2.5ft 4s 3s 20 25 mph 1021.9mb 67f 60f
7:50am 2ft 4s 3s 22 27 mph 1021.2mb 67f 60f
6:50am 1.6ft 4s 3s 18 22 mph 1020.7mb 68f 60f
5:50am 2ft 4s 3s 18 22 mph 1019.8mb 69f 61f
4:50am 2ft 3s 3s 18 22 mph 1019mb 69f 62f
3:50am 2ft 3s 3s 16 20 mph 1018.9mb 69f 62f
2:50am 1.3ft 3s 3s 16 20 mph 1018.5mb 69f 64f
1:50am 0.7ft  -  3s 13 18 mph 1018.3mb 69f 65f
12:50am 0.7ft  -  3s 9 11 mph 1018.2mb 69f 65f
Sat 09/13 11:50pm 1ft 6s 4s 7 9 mph 1018.1mb 68f 65f
10:50pm 1ft 3s 3s 9 11 mph 1018mb 67f 65f
9:50pm 1ft 6s 4s 11
mph
1018.2mb 67f 64f
8:50pm 1.3ft 3s 3s 13
mph
1018.7mb 67f 64f
7:50pm 1ft 6s 4s 13 16 mph 1019.5mb 67f 64f
6:50pm 1.3ft 6s 4s 11 13 mph 1019.8mb 68f 63f
5:50pm 1.3ft 4s 4s 11
mph
1019.8mb 69f 63f
4:50pm 1.3ft 5s 3s 18
mph
1018.7mb 70f 63f
3:50pm 1.6ft 5s 4s 11 13 mph 1020mb 70f 63f
2:50pm 1.6ft 5s 3s 11 16 mph 1020.7mb 70f 63f
1:50pm 1.6ft 3s 4s 13 16 mph 1021.7mb 70f 63f
12:50pm 1.6ft 4s 4s 18 20 mph 1021.6mb 69f 63f
11:50am 1.3ft 4s 4s 16 18 mph 1022.4mb 69f 63f
10:50am 1.6ft 4s 4s 18 20 mph 1022.8mb 68f 63f
9:50am 1.3ft 3s 3s 18 20 mph 1023.1mb 67f 63f
8:50am 1.3ft 3s 3s 16 18 mph 1023.4mb 67f 63f
7:50am 1.3ft 3s 3s 13 16 mph 1023.5mb 67f 63f
6:50am 1.3ft 3s 3s 13 16 mph 1023.2mb 68f 63f
5:50am 1.3ft 3s 3s 16 18 mph 1022.4mb 69f 64f
4:50am 1.3ft 3s 3s 18 20 mph 1022.2mb 69f 64f
3:50am 1.3ft 3s 3s 18 20 mph 1022mb 69f 64f
2:50am 1.6ft 3s 3s 16 20 mph 1022.1mb 69f 64f
1:50am 1.3ft 3s 3s 13 18 mph 1022.5mb 69f 63f
12:50am 1.3ft 3s 3s 16 18 mph 1022.3mb 69f 64f
Fri 09/12 11:50pm 1ft 3s 3s 13 16 mph 1022.5mb 69f 63f
10:50pm 0.7ft  -  3s 11 16 mph 1022.1mb 68f 63f
9:50pm 1ft 5s 3s 9 11 mph 1021.9mb 67f 62f
8:50pm 1ft 3s 3s 9 11 mph 1021.6mb 67f 62f
7:50pm 1.3ft 3s 3s 13
mph
1020.7mb 67f 62f
6:50pm 1.3ft 3s 3s 16 18 mph 1019.7mb 68f 62f
5:50pm 1ft 3s 3s 16 18 mph 1019.4mb 69f 63f
4:50pm 1.3ft 3s 3s 13 16 mph 1019.2mb 70f 64f
3:50pm 1.3ft 3s 3s 11 13 mph 1018.8mb 71f 64f
2:50pm 1.6ft 3s 3s 11 16 mph 1018.3mb 70f 64f
1:50pm 2ft 3s 3s 13 16 mph 1018.2mb 70f 64f
12:50pm 2ft 4s 3s 16 18 mph 1018mb 70f 63f
11:50am 2.5ft 4s 4s 18 22 mph 1017.8mb 70f 62f
10:50am 2.5ft 4s 3s 20 25 mph 1017.8mb 69f 63f
9:50am 2.5ft 4s 3s 22 25 mph 1017.1mb 68f 64f
8:50am 2ft 3s 3s 18 20 mph 1016.7mb 67f 65f
7:50am 1.6ft 3s 3s 16 18 mph 1016.1mb 67f 65f
6:50am 1.6ft 3s 3s 16 20 mph 1015.3mb 68f 65f
5:50am 2ft 4s 3s 16 18 mph 1014.4mb 69f 65f
4:50am 2ft 4s 4s 18 25 mph 1013.6mb 70f 67f
3:50am 1.3ft 3s 4s 18 20 mph 1012.8mb 71f 68f